createdAt,value
2022-08-20T00:02:14.812Z,6.97
2022-08-20T00:07:15.015Z,7.47
2022-08-20T00:12:17.844Z,7.55
2022-08-20T00:17:19.269Z,7.30
2022-08-20T00:22:21.234Z,7.78
2022-08-20T00:27:19.951Z,7.25
2022-08-20T00:32:23.438Z,7.85
2022-08-20T00:37:22.069Z,8.82
2022-08-20T00:42:35.043Z,8.77
2022-08-20T00:47:32.757Z,6.68
2022-08-20T00:52:31.622Z,7.78
2022-08-20T00:58:00.015Z,6.97
2022-08-20T01:03:04.367Z,8.40
2022-08-20T01:08:13.042Z,7.85
2022-08-20T01:13:21.440Z,7.90
2022-08-20T01:18:25.374Z,7.53
2022-08-20T01:23:34.595Z,8.20
2022-08-20T01:28:45.545Z,8.57
2022-08-20T01:33:49.909Z,7.28
2022-08-20T01:38:54.204Z,7.53
2022-08-20T01:43:57.206Z,7.65
2022-08-20T01:49:02.909Z,6.25
2022-08-20T01:54:14.323Z,6.57
2022-08-20T01:59:12.698Z,7.15
2022-08-20T02:04:15.113Z,7.10
2022-08-20T02:14:15.817Z,6.30
2022-08-20T02:19:20.723Z,6.55
2022-08-20T02:24:22.716Z,6.85
2022-08-20T02:29:26.347Z,6.07
2022-08-20T02:34:25.116Z,7.28
2022-08-20T02:39:23.380Z,7.20
2022-08-20T02:44:22.676Z,7.82
2022-08-20T02:49:21.105Z,8.07
2022-08-20T02:54:20.271Z,8.30
2022-08-20T02:59:21.228Z,8.00
2022-08-20T03:04:22.913Z,8.15
2022-08-20T03:09:25.043Z,8.18
2022-08-20T03:14:24.237Z,8.00
2022-08-20T03:19:26.513Z,7.57
2022-08-20T03:24:27.438Z,8.25
2022-08-20T03:29:26.056Z,7.97
2022-08-20T03:34:26.948Z,7.70
2022-08-20T03:39:28.259Z,7.00
2022-08-20T03:44:29.737Z,8.45
2022-08-20T03:49:28.109Z,7.53
2022-08-20T03:54:32.040Z,8.02
2022-08-20T03:59:33.235Z,7.90
2022-08-20T04:04:32.158Z,7.53
2022-08-20T04:09:35.660Z,7.80
2022-08-20T04:14:37.469Z,7.65
2022-08-20T04:19:36.903Z,7.72
2022-08-20T04:24:37.423Z,7.80
2022-08-20T04:29:37.024Z,6.50
2022-08-20T04:34:34.913Z,7.57
2022-08-20T04:39:35.928Z,7.65
2022-08-20T04:44:37.086Z,7.32
2022-08-20T04:49:38.110Z,8.63
2022-08-20T04:54:39.136Z,9.07
2022-08-20T04:59:41.516Z,8.23
2022-08-20T05:04:40.266Z,8.93
2022-08-20T05:09:44.053Z,9.20
2022-08-20T05:14:42.706Z,9.00
2022-08-20T05:19:41.788Z,9.70
2022-08-20T05:24:53.694Z,8.32
2022-08-20T05:29:54.949Z,9.23
2022-08-20T05:34:52.965Z,9.35
2022-08-20T05:39:53.744Z,9.90
2022-08-20T05:44:58.404Z,10.68
2022-08-20T05:49:59.697Z,9.77
2022-08-20T05:55:02.033Z,9.15
2022-08-20T06:00:06.621Z,8.60
2022-08-20T06:05:11.902Z,9.20
2022-08-20T06:10:10.993Z,9.63
2022-08-20T06:15:31.149Z,9.13
2022-08-20T06:20:29.575Z,8.63
2022-08-20T06:25:31.542Z,9.07
2022-08-20T06:30:34.035Z,8.80
2022-08-20T06:35:37.915Z,10.73
2022-08-20T06:40:40.695Z,8.75
2022-08-20T06:45:42.060Z,9.45
2022-08-20T06:50:47.148Z,10.57
2022-08-20T06:55:50.801Z,8.45
2022-08-20T07:00:52.764Z,8.75
2022-08-20T07:05:55.269Z,7.45
2022-08-20T07:10:56.942Z,7.83
2022-08-20T07:15:55.234Z,6.85
2022-08-20T07:20:55.109Z,7.20
2022-08-20T07:25:55.033Z,7.45
2022-08-20T07:31:15.852Z,6.60
2022-08-20T07:36:15.754Z,7.15
2022-08-20T07:41:17.334Z,7.32
2022-08-20T07:46:21.216Z,7.22
2022-08-20T07:51:21.055Z,6.35
2022-08-20T07:56:24.227Z,6.55
2022-08-20T08:01:38.802Z,6.80
2022-08-20T08:06:37.419Z,6.03
2022-08-20T08:11:40.035Z,5.32
2022-08-20T08:16:48.092Z,5.88
2022-08-20T08:21:47.007Z,5.78
2022-08-20T08:26:50.320Z,5.20
2022-08-20T08:31:50.336Z,5.13
2022-08-20T08:36:52.025Z,4.60
2022-08-20T08:41:57.432Z,5.10
2022-08-20T08:47:03.296Z,4.85
2022-08-20T08:52:18.993Z,5.13
2022-08-20T08:57:21.311Z,4.72
2022-08-20T09:02:39.939Z,5.13
2022-08-20T09:08:13.675Z,4.45
2022-08-20T09:13:28.182Z,4.15
2022-08-20T09:18:29.047Z,4.05
2022-08-20T09:23:35.932Z,4.53
2022-08-20T09:28:40.054Z,4.93
2022-08-20T09:33:41.634Z,4.35
2022-08-20T09:38:43.450Z,4.07
2022-08-20T09:43:59.464Z,3.97
2022-08-20T09:49:00.479Z,4.82
2022-08-20T09:54:03.938Z,4.15
2022-08-20T09:59:03.178Z,4.70
2022-08-20T10:04:13.915Z,4.75
2022-08-20T10:09:15.301Z,4.35
2022-08-20T10:14:18.261Z,4.15
2022-08-20T10:19:19.636Z,4.15
2022-08-20T10:24:18.312Z,4.38
2022-08-20T10:29:19.514Z,4.18
2022-08-20T10:34:27.560Z,4.28
2022-08-20T10:39:28.658Z,5.15
2022-08-20T10:44:36.513Z,4.53
2022-08-20T10:49:40.819Z,4.72
2022-08-20T10:54:43.601Z,4.32
2022-08-20T10:59:45.814Z,4.57
2022-08-20T11:04:46.867Z,4.40
2022-08-20T11:09:53.351Z,5.47
2022-08-20T11:14:52.561Z,4.88
2022-08-20T11:19:55.004Z,5.20
2022-08-20T11:29:54.865Z,4.80
2022-08-20T11:34:55.142Z,5.10
2022-08-20T11:39:56.803Z,4.88
2022-08-20T11:45:00.086Z,5.05
2022-08-20T11:50:16.479Z,4.53
2022-08-20T11:55:21.327Z,4.50
2022-08-20T12:00:33.981Z,4.35
2022-08-20T12:05:33.222Z,4.00
2022-08-20T12:10:45.518Z,4.38
2022-08-20T12:15:52.465Z,4.57
2022-08-20T12:20:58.909Z,4.10
2022-08-20T12:25:59.273Z,4.00
2022-08-20T12:30:59.024Z,4.07
2022-08-20T12:36:02.672Z,3.92
2022-08-20T12:41:03.548Z,4.07
2022-08-20T12:46:06.340Z,3.83
2022-08-20T12:51:21.618Z,3.60
2022-08-20T12:56:20.946Z,3.78
2022-08-20T13:01:21.107Z,3.92
2022-08-20T13:06:31.187Z,3.65
2022-08-20T13:11:57.511Z,3.92
2022-08-20T13:17:12.990Z,4.30
2022-08-20T13:22:15.829Z,3.63
2022-08-20T13:27:31.801Z,3.63
2022-08-20T13:32:30.054Z,3.65
2022-08-20T13:37:44.853Z,3.53
2022-08-20T13:42:46.142Z,3.50
2022-08-20T13:47:44.871Z,3.20
2022-08-20T13:52:46.563Z,3.90
2022-08-20T13:57:49.357Z,4.22
2022-08-20T14:02:50.846Z,4.13
2022-08-20T14:12:49.911Z,3.35
2022-08-20T14:17:55.271Z,3.55
2022-08-20T14:22:57.259Z,3.05
2022-08-20T14:27:59.282Z,2.95
2022-08-20T14:33:10.964Z,3.20
2022-08-20T14:38:14.816Z,3.33
2022-08-20T14:43:18.995Z,2.95
2022-08-20T14:48:17.499Z,3.78
2022-08-20T14:53:19.440Z,2.80
2022-08-20T15:03:29.096Z,3.38
2022-08-20T15:08:31.749Z,3.83
2022-08-20T15:13:33.486Z,2.58
2022-08-20T15:18:34.392Z,3.00
2022-08-20T15:23:36.931Z,3.22
2022-08-20T15:28:35.325Z,2.95
2022-08-20T15:33:36.437Z,3.38
2022-08-20T15:38:37.024Z,3.80
2022-08-20T15:43:40.177Z,3.40
2022-08-20T15:48:48.215Z,3.03
2022-08-20T15:54:06.955Z,3.42
2022-08-20T15:59:29.236Z,3.38
2022-08-20T16:04:49.820Z,2.83
2022-08-20T16:10:00.285Z,2.83
2022-08-20T16:15:10.586Z,3.33
2022-08-20T16:20:42.256Z,3.75
2022-08-20T16:26:23.979Z,2.80
2022-08-20T16:31:56.095Z,3.30
2022-08-20T16:37:16.720Z,3.25
2022-08-20T16:42:29.062Z,3.33
2022-08-20T16:47:44.114Z,3.47
2022-08-20T16:58:10.153Z,3.78
2022-08-20T17:03:46.644Z,4.60
2022-08-20T17:08:49.808Z,3.90
2022-08-20T17:14:13.010Z,3.85
2022-08-20T17:19:24.025Z,4.30
2022-08-20T17:24:31.792Z,4.37
2022-08-20T17:29:37.545Z,3.50
2022-08-20T17:34:57.723Z,4.72
2022-08-20T17:40:20.875Z,4.78
2022-08-20T17:45:25.841Z,5.22
2022-08-20T17:50:31.789Z,4.63
2022-08-20T17:55:36.479Z,5.57
2022-08-20T18:00:36.390Z,4.97
2022-08-20T18:05:38.695Z,5.22
2022-08-20T18:10:51.351Z,5.70
2022-08-20T18:15:56.068Z,5.35
2022-08-20T18:21:14.934Z,5.65
2022-08-20T18:26:46.695Z,5.72
2022-08-20T18:32:01.250Z,5.85
2022-08-20T18:37:22.393Z,5.00
2022-08-20T18:42:39.975Z,5.15
2022-08-20T18:47:48.959Z,5.10
2022-08-20T18:53:31.685Z,5.28
2022-08-20T18:58:42.294Z,5.40
2022-08-20T19:09:31.131Z,4.50
2022-08-20T19:15:10.576Z,4.90
2022-08-20T19:20:37.618Z,5.50
2022-08-20T19:25:42.863Z,5.25
2022-08-20T19:30:43.937Z,4.90
2022-08-20T19:35:45.347Z,5.28
2022-08-20T19:41:11.782Z,4.80
2022-08-20T19:46:19.978Z,5.07
2022-08-20T19:51:52.247Z,5.35
2022-08-20T19:56:57.514Z,5.78
2022-08-20T20:02:20.667Z,5.07
2022-08-20T20:07:55.165Z,4.95
2022-08-20T20:13:13.970Z,4.82
2022-08-20T20:18:13.694Z,4.88
2022-08-20T20:58:56.076Z,4.88
2022-08-20T21:04:14.103Z,5.25
2022-08-20T21:09:16.350Z,4.90
2022-08-20T21:14:20.973Z,5.93
2022-08-20T21:19:24.395Z,4.93
2022-08-20T21:24:30.057Z,5.03
2022-08-20T21:29:36.988Z,5.20
2022-08-20T21:34:38.444Z,4.97
2022-08-20T21:39:41.441Z,4.75
2022-08-20T21:44:56.343Z,5.13
2022-08-20T21:49:59.951Z,5.00
2022-08-20T21:54:59.108Z,4.78
2022-08-20T22:00:13.242Z,5.28
2022-08-20T22:05:34.054Z,5.47
2022-08-20T22:10:36.402Z,5.35
2022-08-20T22:21:36.816Z,5.32
2022-08-20T22:26:54.881Z,5.22
2022-08-20T22:32:05.823Z,4.78
2022-08-20T22:37:10.026Z,4.75
2022-08-20T22:42:16.292Z,4.68
2022-08-20T22:47:14.961Z,5.07
2022-08-20T22:52:12.637Z,4.93
2022-08-20T22:57:14.755Z,5.63
2022-08-20T23:02:19.262Z,4.75
2022-08-20T23:07:23.580Z,5.35
2022-08-20T23:12:27.011Z,4.63
2022-08-20T23:17:31.645Z,4.90
2022-08-20T23:22:33.071Z,5.10
2022-08-20T23:27:39.607Z,5.03
2022-08-20T23:33:02.362Z,4.97
2022-08-20T23:38:05.835Z,5.28
2022-08-20T23:43:04.263Z,4.65
2022-08-20T23:48:09.307Z,4.55
2022-08-20T23:53:12.478Z,4.57
2022-08-20T23:58:17.540Z,4.60
